Time;durP1;ratioP1;P1;durP2;ratioP2;P2;SDS_P1;SDS_P2;PMS_P1;PMS_P2;Temp;Humidity;BMP_temperature;BMP_pressure;BME280_temperature;BME280_humidity;BME280_pressure;Samples;Min_cycle;Max_cycle;Signal;HPM_P1;HPM_P2
2022/11/17 00:00:08;;;;;;;9.07;4.07;;;;;;;9.16;100.00;98521.72;5015672;28;20025;-69
2022/11/17 00:02:35;;;;;;;13.25;4.13;;;;;;;9.17;100.00;98509.47;5026897;28;20492;-68
2022/11/17 00:05:00;;;;;;;8.02;2.80;;;;;;;9.17;100.00;98509.47;5018226;28;20047;-69
2022/11/17 00:07:25;;;;;;;7.07;3.35;;;;;;;9.17;100.00;98496.34;5017701;28;20034;-68
2022/11/17 00:09:50;;;;;;;10.27;3.72;;;;;;;9.16;100.00;98492.88;5015700;28;20033;-68
2022/11/17 00:15:00;;;;;;;11.95;3.13;;;;;;;9.16;100.00;98468.41;5022990;28;20141;-68
2022/11/17 00:17:25;;;;;;;6.35;3.35;;;;;;;9.18;100.00;98477.94;5022156;28;20108;-69
2022/11/17 00:22:34;;;;;;;7.05;3.20;;;;;;;9.20;100.00;98465.69;5016201;28;20088;-70
2022/11/17 00:24:59;;;;;;;10.18;3.42;;;;;;;9.22;100.00;98448.16;5015252;28;20056;-70
2022/11/17 00:27:25;;;;;;;8.52;3.47;;;;;;;9.22;100.00;98457.78;5015199;28;20104;-70
2022/11/17 00:29:50;;;;;;;9.38;3.65;;;;;;;9.23;100.00;98431.53;5021698;28;20075;-70
2022/11/17 00:35:01;;;;;;;9.07;5.10;;;;;;;9.24;100.00;98435.03;5015476;28;20497;-69
2022/11/17 00:37:31;;;;;;;9.80;3.78;;;;;;;9.27;100.00;98421.84;5020013;28;20021;-71
2022/11/17 00:39:57;;;;;;;11.45;5.53;;;;;;;9.28;100.00;98416.56;5016337;28;20160;-70
2022/11/17 00:42:22;;;;;;;9.68;4.80;;;;;;;9.30;100.00;98413.06;5021303;28;20517;-71
2022/11/17 00:44:47;;;;;;;9.80;4.55;;;;;;;9.28;100.00;98405.22;5020294;28;20133;-71
2022/11/17 00:47:13;;;;;;;11.60;4.75;;;;;;;9.32;100.00;98408.63;5023584;28;20112;-70
2022/11/17 00:49:38;;;;;;;9.80;4.95;;;;;;;9.34;100.00;98419.97;5025267;28;20021;-72
2022/11/17 00:52:04;;;;;;;10.93;4.70;;;;;;;9.36;100.00;98412.94;5022718;28;20381;-70
2022/11/17 00:54:29;;;;;;;7.15;4.25;;;;;;;9.38;100.00;98412.00;5021431;28;20041;-70
2022/11/17 00:56:54;;;;;;;9.98;4.35;;;;;;;9.38;100.00;98388.38;5025799;28;20057;-71
2022/11/17 00:59:20;;;;;;;11.73;4.82;;;;;;;9.39;100.00;98376.16;5029790;28;20034;-71
2022/11/17 01:01:46;;;;;;;13.90;5.57;;;;;;;9.38;100.00;98380.53;5022098;28;20021;-71
2022/11/17 01:04:13;;;;;;;8.40;4.93;;;;;;;9.39;100.00;98382.25;5032181;28;20025;-69
2022/11/17 01:06:41;;;;;;;12.93;5.30;;;;;;;9.40;100.00;98377.88;5023524;28;20462;-70
2022/11/17 01:09:10;;;;;;;10.55;5.72;;;;;;;9.43;100.00;98373.44;5014819;28;20030;-71
2022/11/17 01:11:36;;;;;;;6.63;5.00;;;;;;;9.42;100.00;98358.56;5014544;28;20109;-71
2022/11/17 01:14:01;;;;;;;7.90;4.80;;;;;;;9.45;100.00;98362.91;5017550;28;20538;-71
2022/11/17 01:16:28;;;;;;;9.85;5.82;;;;;;;9.44;100.00;98362.03;5024206;28;20025;-71
2022/11/17 01:18:53;;;;;;;14.38;5.72;;;;;;;9.48;100.00;98367.22;5014640;28;20037;-70
2022/11/17 01:21:22;;;;;;;10.38;5.03;;;;;;;9.48;100.00;98364.59;5022193;28;20036;-71
2022/11/17 01:23:49;;;;;;;10.43;4.97;;;;;;;9.50;100.00;98362.81;5015402;28;20370;-69
2022/11/17 01:26:22;;;;;;;13.25;4.90;;;;;;;9.52;100.00;98369.78;5014153;28;20022;-70
2022/11/17 01:28:49;;;;;;;8.20;4.07;;;;;;;9.53;100.00;98362.75;5024940;28;20032;-71
2022/11/17 01:31:20;;;;;;;9.02;4.65;;;;;;;9.56;100.00;98352.19;5027477;28;20394;-69
2022/11/17 01:33:46;;;;;;;7.25;4.30;;;;;;;9.55;100.00;98360.94;5013974;28;20026;-69
2022/11/17 01:36:15;;;;;;;7.88;4.45;;;;;;;9.56;100.00;98357.44;5014520;28;20124;-70
2022/11/17 01:38:42;;;;;;;8.50;4.90;;;;;;;9.57;100.00;98360.03;5027732;28;20039;-69
2022/11/17 01:41:16;;;;;;;5.70;3.67;;;;;;;9.62;100.00;98363.44;5027791;28;20036;-69
2022/11/17 01:43:44;;;;;;;6.00;3.60;;;;;;;9.64;100.00;98354.69;5029633;28;20032;-69
2022/11/17 01:46:26;;;;;;;6.55;3.75;;;;;;;9.64;100.00;98352.06;5020886;28;20495;-70
2022/11/17 01:48:59;;;;;;;5.63;3.47;;;;;;;9.65;100.00;98346.75;5013830;28;20038;-68
2022/11/17 01:51:28;;;;;;;8.68;3.95;;;;;;;9.66;100.00;98345.88;5025825;28;20505;-70
2022/11/17 01:53:53;;;;;;;7.82;4.00;;;;;;;9.67;100.00;98333.59;5026368;28;20382;-70
2022/11/17 01:56:25;;;;;;;8.88;3.25;;;;;;;9.68;100.00;98314.34;5014352;28;20022;-70
2022/11/17 01:58:58;;;;;;;6.38;3.88;;;;;;;9.72;100.00;98313.38;5029511;28;20371;-69
2022/11/17 02:01:23;;;;;;;6.28;3.17;;;;;;;9.73;100.00;98315.09;5016728;28;20041;-69
2022/11/17 02:03:50;;;;;;;5.45;2.70;;;;;;;9.76;100.00;98291.41;5012006;28;20387;-70
2022/11/17 02:06:36;;;;;;;6.45;3.00;;;;;;;9.78;100.00;98297.50;5013497;28;20155;-70
2022/11/17 02:09:02;;;;;;;4.38;2.83;;;;;;;9.79;100.00;98291.31;5019375;28;20033;-69
2022/11/17 02:11:34;;;;;;;3.75;2.50;;;;;;;9.81;100.00;98299.16;5012305;28;20044;-70
2022/11/17 02:14:01;;;;;;;10.60;3.13;;;;;;;9.81;100.00;98309.66;5016072;28;20110;-69
2022/11/17 02:16:27;;;;;;;7.35;3.33;;;;;;;9.83;100.00;98302.63;5024481;28;20033;-69
2022/11/17 02:18:52;;;;;;;7.15;2.90;;;;;;;9.80;100.00;98303.56;5023318;28;20386;-69
2022/11/17 02:21:39;;;;;;;7.03;2.88;;;;;;;9.79;100.00;98297.47;5013517;28;20044;-69
2022/11/17 02:24:16;;;;;;;7.55;3.50;;;;;;;9.83;100.00;98313.13;5025982;28;20374;-69
2022/11/17 02:27:00;;;;;;;5.63;3.05;;;;;;;9.83;100.00;98298.25;5029926;28;20056;-71
2022/11/17 02:29:38;;;;;;;5.55;3.17;;;;;;;9.82;100.00;98290.41;5026675;28;20096;-69
2022/11/17 02:32:08;;;;;;;5.43;3.05;;;;;;;9.81;100.00;98288.66;5023885;28;20025;-69
2022/11/17 02:34:45;;;;;;;6.57;3.45;;;;;;;9.81;100.00;98286.03;5021546;28;20029;-70
2022/11/17 02:37:32;;;;;;;5.22;2.83;;;;;;;9.79;100.00;98284.31;5019227;28;20036;-68
2022/11/17 02:40:17;;;;;;;8.77;2.85;;;;;;;9.79;100.00;98276.44;5012939;28;20022;-69
2022/11/17 02:45:38;;;;;;;5.00;2.90;;;;;;;9.79;100.00;98272.94;5025767;28;20087;-69
2022/11/17 02:48:10;;;;;;;8.68;3.13;;;;;;;9.79;100.00;98272.94;5014516;28;20030;-69
2022/11/17 02:50:38;;;;;;;4.88;2.40;;;;;;;9.77;100.00;98275.59;5012998;28;20051;-68
2022/11/17 02:53:04;;;;;;;8.35;2.72;;;;;;;9.78;100.00;98269.47;5019911;28;20029;-68
2022/11/17 02:55:34;;;;;;;6.72;2.40;;;;;;;9.79;100.00;98275.56;5018778;28;20025;-69
2022/11/17 02:57:59;;;;;;;11.00;2.38;;;;;;;9.77;100.00;98257.22;5025446;28;20577;-69
2022/11/17 03:00:26;;;;;;;5.05;2.22;;;;;;;9.78;100.00;98256.31;5015227;28;20034;-69
2022/11/17 03:03:04;;;;;;;7.07;2.17;;;;;;;9.80;100.00;98251.03;5014309;28;20045;-69
2022/11/17 03:05:35;;;;;;;5.93;2.00;;;;;;;9.83;100.00;98247.47;5024162;28;20101;-70
2022/11/17 03:08:16;;;;;;;5.47;2.20;;;;;;;9.85;100.00;98250.91;5015048;28;20389;-70
2022/11/17 03:11:09;;;;;;;7.38;2.15;;;;;;;9.87;100.00;98241.25;5014377;28;20453;-69
2022/11/17 03:14:09;;;;;;;8.40;2.10;;;;;;;9.90;100.00;98239.44;5011087;28;20516;-69
2022/11/17 03:16:45;;;;;;;5.25;1.70;;;;;;;9.95;100.00;98226.19;5004002;28;20058;-69
2022/11/17 03:19:34;;;;;;;3.03;1.60;;;;;;;9.96;100.00;98230.53;5013258;28;20113;-68
2022/11/17 03:22:21;;;;;;;7.38;2.03;;;;;;;9.96;100.00;98222.66;5015340;28;20076;-70
2022/11/17 03:24:54;;;;;;;8.30;1.75;;;;;;;9.99;100.00;98219.97;5016120;28;20092;-68
2022/11/17 03:27:25;;;;;;;7.57;1.88;;;;;;;10.01;100.00;98212.91;5024091;28;20025;-69
2022/11/17 03:29:55;;;;;;;6.22;1.80;;;;;;;10.03;100.00;98224.25;5023289;28;20206;-69
2022/11/17 03:32:22;;;;;;;4.07;1.73;;;;;;;10.04;100.00;98206.72;5020684;28;20026;-70
2022/11/17 03:34:54;;;;;;;6.13;1.45;;;;;;;10.07;100.00;98207.50;5016827;28;20030;-68
2022/11/17 03:37:21;;;;;;;2.50;1.63;;;;;;;10.07;100.00;98189.09;5016366;28;20105;-70
2022/11/17 03:39:51;;;;;;;3.55;1.33;;;;;;;10.05;100.00;98193.56;5022583;28;20369;-69
2022/11/17 03:42:26;;;;;;;7.47;1.52;;;;;;;10.07;100.00;98183.84;5015935;28;20037;-69
2022/11/17 03:45:15;;;;;;;5.65;2.10;;;;;;;10.07;100.00;98181.22;5020280;28;20042;-70
2022/11/17 03:47:42;;;;;;;5.70;2.20;;;;;;;10.07;100.00;98173.34;5022593;28;20034;-69
2022/11/17 03:50:55;;;;;;;3.65;1.95;;;;;;;10.12;100.00;98174.09;5014982;28;20478;-68
2022/11/17 03:53:21;;;;;;;5.63;1.38;;;;;;;10.10;100.00;98182.91;5002025;28;20545;-68
2022/11/17 03:56:16;;;;;;;6.88;1.77;;;;;;;10.12;100.00;98176.72;5009931;28;20109;-68
2022/11/17 03:58:56;;;;;;;6.25;1.60;;;;;;;10.17;100.00;98183.63;4996341;28;20414;-69
2022/11/17 04:01:22;;;;;;;8.05;1.30;;;;;;;10.19;100.00;98179.22;5027740;28;20041;-68
2022/11/17 04:03:47;;;;;;;9.35;1.90;;;;;;;10.17;100.00;98175.75;5021683;28;20033;-69
2022/11/17 04:06:13;;;;;;;6.40;1.25;;;;;;;10.18;100.00;98174.84;5023082;28;20036;-68
2022/11/17 04:08:38;;;;;;;11.52;1.30;;;;;;;10.19;100.00;98173.97;5017309;28;20172;-69
2022/11/17 04:16:31;;;;;;;;;;;;;;;10.20;100.00;98191.44;5030880;28;20088;-69
2022/11/17 04:18:57;;;;;;;2.50;1.27;;;;;;;10.17;100.00;98186.25;5018264;28;20281;-68
2022/11/17 04:21:22;;;;;;;11.93;1.67;;;;;;;10.15;100.00;98182.78;5018577;28;20837;-69
2022/11/17 04:23:47;;;;;;;8.52;1.52;;;;;;;10.11;100.00;98182.88;5027597;28;20105;-69
2022/11/17 04:28:57;;;;;;;3.33;1.30;;;;;;;10.06;100.00;98184.75;5025782;28;20090;-69
2022/11/17 04:31:25;;;;;;;5.65;1.27;;;;;;;10.02;100.00;98183.09;5027285;28;20022;-70
2022/11/17 04:33:55;;;;;;;5.00;1.08;;;;;;;10.00;100.00;98168.28;5022352;28;20021;-69
2022/11/17 04:36:23;;;;;;;4.45;1.13;;;;;;;9.95;100.00;98153.47;5015207;28;20061;-71
2022/11/17 04:38:51;;;;;;;6.47;1.30;;;;;;;9.92;100.00;98143.06;5018401;28;20176;-70
2022/11/17 04:44:04;;;;;;;8.52;1.90;;;;;;;9.91;100.00;98129.97;5022099;28;20080;-69
2022/11/17 04:46:31;;;;;;;4.13;1.23;;;;;;;9.93;100.00;98120.31;5032129;28;20052;-70
2022/11/17 04:48:57;;;;;;;5.03;1.00;;;;;;;9.94;100.00;98116.75;5030915;28;20026;-69
2022/11/17 04:51:24;;;;;;;5.15;1.00;;;;;;;9.93;100.00;98131.66;5030191;28;20488;-69
2022/11/17 04:53:50;;;;;;;5.65;1.13;;;;;;;9.93;100.00;98109.78;5022196;28;20395;-69
2022/11/17 04:56:17;;;;;;;4.20;1.17;;;;;;;9.94;100.00;98111.50;5035097;28;20096;-69
2022/11/17 04:58:43;;;;;;;3.70;1.30;;;;;;;9.93;100.00;98112.44;5017260;28;20125;-71
2022/11/17 05:01:11;;;;;;;4.75;1.10;;;;;;;9.94;100.00;98108.88;5015417;28;20493;-69
2022/11/17 05:03:48;;;;;;;5.05;1.13;;;;;;;9.93;100.00;98109.78;5027513;28;20029;-70
2022/11/17 05:06:17;;;;;;;6.53;1.38;;;;;;;9.94;100.00;98115.00;5017137;28;20038;-70
2022/11/17 05:08:43;;;;;;;3.00;1.15;;;;;;;9.96;100.00;98104.47;5026121;28;20086;-69
2022/11/17 05:13:54;;;;;;;2.67;1.25;;;;;;;9.95;100.00;98110.59;5017991;28;20094;-69
2022/11/17 05:19:06;;;;;;;4.03;1.02;;;;;;;9.99;100.00;98130.63;5017329;28;20433;-68
2022/11/17 05:21:32;;;;;;;3.22;1.40;;;;;;;9.96;100.00;98128.09;5021520;28;20108;-69
2022/11/17 05:23:57;;;;;;;5.30;1.50;;;;;;;9.98;100.00;98131.53;5017474;28;20105;-70
2022/11/17 05:26:28;;;;;;;5.32;1.30;;;;;;;9.98;100.00;98133.31;5026684;28;21567;-70
2022/11/17 05:28:55;;;;;;;5.32;1.17;;;;;;;9.95;100.00;98135.09;5021062;28;20021;-70
2022/11/17 05:31:21;;;;;;;8.27;1.55;;;;;;;9.94;100.00;98138.66;5028091;28;20040;-71
2022/11/17 05:33:46;;;;;;;3.50;1.50;;;;;;;9.97;100.00;98116.69;5023685;28;20025;-69
2022/11/17 05:36:12;;;;;;;2.97;2.05;;;;;;;9.96;100.00;98125.47;5018944;28;20075;-70
2022/11/17 05:38:37;;;;;;;5.10;1.70;;;;;;;10.00;100.00;98118.34;5021413;28;20104;-70
2022/11/17 05:41:03;;;;;;;6.22;2.17;;;;;;;9.98;100.00;98123.66;5013933;28;20096;-70
2022/11/17 05:43:28;;;;;;;3.50;1.83;;;;;;;9.98;100.00;98123.66;5020959;28;20451;-70
2022/11/17 05:45:53;;;;;;;7.28;1.95;;;;;;;10.00;100.00;98120.97;5018157;28;20443;-70
2022/11/17 05:48:19;;;;;;;5.88;2.20;;;;;;;10.01;100.00;98123.59;5013868;28;20175;-69
2022/11/17 05:50:45;;;;;;;4.10;1.73;;;;;;;10.01;100.00;98122.72;5024218;28;20044;-70
2022/11/17 05:53:10;;;;;;;4.93;2.30;;;;;;;10.03;100.00;98121.78;5020862;28;20132;-69
2022/11/17 05:55:36;;;;;;;3.15;2.10;;;;;;;10.06;100.00;98126.09;5015089;28;20440;-70
2022/11/17 05:58:24;;;;;;;5.07;2.15;;;;;;;10.09;100.00;98116.38;5030177;28;20041;-69
2022/11/17 06:00:51;;;;;;;6.90;2.10;;;;;;;10.10;100.00;98123.34;5014157;28;20080;-69
2022/11/17 06:03:23;;;;;;;8.15;2.28;;;;;;;10.12;100.00;98116.28;5028031;28;20033;-70
2022/11/17 06:05:48;;;;;;;8.45;1.80;;;;;;;10.09;100.00;98116.38;5017016;28;20041;-69
2022/11/17 06:08:13;;;;;;;6.20;1.77;;;;;;;10.12;100.00;98120.69;5026651;28;20038;-69
2022/11/17 06:10:38;;;;;;;7.15;1.90;;;;;;;10.13;100.00;98123.28;5017186;28;20500;-70
2022/11/17 06:13:04;;;;;;;8.13;2.53;;;;;;;10.15;100.00;98122.34;5016784;28;20020;-69
2022/11/17 06:15:30;;;;;;;11.73;2.40;;;;;;;10.08;100.00;98119.91;5016284;28;20033;-70
2022/11/17 06:18:01;;;;;;;12.18;2.40;;;;;;;10.11;100.00;98127.69;5018212;28;20013;-70
2022/11/17 06:20:31;;;;;;;9.13;2.50;;;;;;;10.11;100.00;98113.72;5022346;28;20444;-70
2022/11/17 06:23:00;;;;;;;10.00;2.38;;;;;;;10.07;100.00;98120.78;5012878;28;20427;-70
2022/11/17 06:25:27;;;;;;;10.48;2.92;;;;;;;10.10;100.00;98111.97;5021683;28;20033;-70
2022/11/17 06:27:53;;;;;;;4.75;2.70;;;;;;;10.10;100.00;98122.50;5026869;28;20021;-69
2022/11/17 06:30:19;;;;;;;9.18;3.53;;;;;;;10.09;100.00;98128.63;5023738;28;20026;-70
2022/11/17 06:32:46;;;;;;;7.22;2.70;;;;;;;10.05;100.00;98132.25;5017626;28;20033;-69
2022/11/17 06:35:13;;;;;;;9.15;3.20;;;;;;;10.03;100.00;98121.78;5025654;28;20416;-70
2022/11/17 06:37:38;;;;;;;7.65;3.08;;;;;;;10.04;100.00;98136.66;5025928;28;20049;-70
2022/11/17 06:40:04;;;;;;;8.32;2.35;;;;;;;9.99;100.00;98141.16;5018863;28;20064;-68
2022/11/17 06:45:35;;;;;;;10.00;2.00;;;;;;;9.96;100.00;98143.84;4998764;28;20061;-70
2022/11/17 06:48:00;;;;;;;9.80;2.28;;;;;;;9.96;100.00;98133.34;5014426;28;20103;-69
2022/11/17 06:50:25;;;;;;;12.68;2.20;;;;;;;9.90;100.00;98130.84;5019547;28;20021;-70
2022/11/17 06:52:55;;;;;;;5.57;1.77;;;;;;;9.92;100.00;98139.59;5025555;28;20018;-69
2022/11/17 06:55:20;;;;;;;6.43;1.60;;;;;;;9.93;100.00;98142.16;5025364;28;20520;-69
2022/11/17 06:57:45;;;;;;;6.57;1.73;;;;;;;9.90;100.00;98137.00;5024069;28;20104;-69
2022/11/17 07:00:11;;;;;;;5.05;1.80;;;;;;;9.90;100.00;98147.50;5030943;28;20091;-69
2022/11/17 07:02:37;;;;;;;4.82;1.65;;;;;;;9.92;100.00;98150.09;5024011;28;20032;-69
2022/11/17 07:05:03;;;;;;;7.72;2.03;;;;;;;9.90;100.00;98141.38;5030347;28;20111;-68
2022/11/17 07:07:28;;;;;;;6.10;1.63;;;;;;;9.91;100.00;98153.59;5015380;28;20474;-70
2022/11/17 07:09:53;;;;;;;3.33;1.52;;;;;;;9.84;100.00;98157.28;5025292;28;20079;-68
2022/11/17 07:12:19;;;;;;;8.13;1.85;;;;;;;9.82;100.00;98151.19;5037889;28;20040;-68
2022/11/17 07:14:44;;;;;;;5.15;1.73;;;;;;;9.76;100.00;98155.69;5040654;28;20428;-70
2022/11/17 07:17:09;;;;;;;3.28;1.63;;;;;;;9.70;100.00;98152.34;5039210;28;20488;-69
2022/11/17 07:19:35;;;;;;;2.72;1.58;;;;;;;9.69;100.00;98154.13;5035286;28;20026;-69
2022/11/17 07:22:02;;;;;;;2.53;1.88;;;;;;;9.62;100.00;98157.78;5042799;28;20027;-69
2022/11/17 07:24:27;;;;;;;10.60;2.10;;;;;;;9.59;100.00;98152.59;5040493;28;20033;-69
2022/11/17 07:26:53;;;;;;;5.60;1.80;;;;;;;9.57;100.00;98159.66;5031096;28;20528;-68
2022/11/17 07:29:18;;;;;;;3.92;2.15;;;;;;;9.55;100.00;98171.94;5014544;28;20061;-69
2022/11/17 07:31:43;;;;;;;5.32;1.77;;;;;;;9.57;100.00;98160.50;5025080;28;20057;-68
2022/11/17 07:34:09;;;;;;;4.75;2.20;;;;;;;9.55;100.00;98166.69;5033557;28;20237;-69
2022/11/17 07:36:34;;;;;;;10.13;2.05;;;;;;;9.53;100.00;98185.09;5041558;28;20051;-69
2022/11/17 07:39:00;;;;;;;3.63;1.92;;;;;;;9.55;100.00;98174.56;5043954;28;20029;-70
2022/11/17 07:41:25;;;;;;;2.95;2.17;;;;;;;9.51;100.00;98181.66;5022327;28;21566;-70
2022/11/17 07:43:51;;;;;;;5.57;2.10;;;;;;;9.53;100.00;98179.00;5020936;28;20036;-70
2022/11/17 07:46:16;;;;;;;4.55;2.28;;;;;;;9.52;100.00;98177.25;5027196;28;20119;-70
2022/11/17 07:48:42;;;;;;;5.68;2.50;;;;;;;9.51;100.00;98178.16;5017383;28;20033;-69
2022/11/17 07:51:08;;;;;;;4.82;2.35;;;;;;;9.49;100.00;98175.56;5022608;28;20037;-70
2022/11/17 07:53:34;;;;;;;4.93;2.40;;;;;;;9.48;100.00;98186.97;5033545;28;20036;-70
2022/11/17 07:56:05;;;;;;;2.97;1.80;;;;;;;9.47;100.00;98184.38;5020426;28;20041;-68
2022/11/17 07:58:30;;;;;;;5.97;2.55;;;;;;;9.48;100.00;98175.59;5018995;28;20038;-69
2022/11/17 08:00:56;;;;;;;4.10;2.17;;;;;;;9.49;100.00;98180.81;5028846;28;20025;-69
2022/11/17 08:03:23;;;;;;;8.13;2.45;;;;;;;9.49;100.00;98180.81;5041445;28;20025;-69
2022/11/17 08:05:48;;;;;;;6.05;1.73;;;;;;;9.48;100.00;98181.72;5021683;28;20106;-70
2022/11/17 08:08:14;;;;;;;6.15;2.40;;;;;;;9.48;100.00;98186.97;5031667;28;20109;-69
2022/11/17 08:10:39;;;;;;;3.72;1.70;;;;;;;9.52;100.00;98185.13;5033944;28;20025;-69
2022/11/17 08:13:05;;;;;;;8.93;2.10;;;;;;;9.52;100.00;98187.75;5026646;28;20458;-70
2022/11/17 08:15:30;;;;;;;7.28;1.90;;;;;;;9.49;100.00;98190.47;5015513;28;20034;-69
2022/11/17 08:17:58;;;;;;;5.03;1.83;;;;;;;9.46;100.00;98201.91;5015984;28;20026;-70
2022/11/17 08:20:25;;;;;;;3.80;1.73;;;;;;;9.49;100.00;98203.59;5032489;28;20033;-70
2022/11/17 08:22:52;;;;;;;4.35;1.75;;;;;;;9.45;100.00;98187.91;5034129;28;20132;-70
2022/11/17 08:25:19;;;;;;;4.47;1.55;;;;;;;9.48;100.00;98196.59;5033454;28;20045;-70
2022/11/17 08:27:44;;;;;;;4.18;1.65;;;;;;;9.44;100.00;98209.81;5031328;28;20049;-70
2022/11/17 08:30:10;;;;;;;4.82;1.27;;;;;;;9.43;100.00;98202.81;5015778;28;20069;-70
2022/11/17 08:32:36;;;;;;;6.35;1.63;;;;;;;9.43;100.00;98212.47;5015367;28;20030;-69
2022/11/17 08:35:04;;;;;;;11.05;1.77;;;;;;;9.44;100.00;98212.44;5014094;28;20553;-70
2022/11/17 08:37:30;;;;;;;7.45;1.40;;;;;;;9.41;100.00;98206.38;5016687;28;20060;-70
2022/11/17 08:39:55;;;;;;;8.60;1.60;;;;;;;9.45;100.00;98232.53;5015437;28;20842;-69
2022/11/17 08:42:20;;;;;;;4.95;1.80;;;;;;;9.44;100.00;98225.56;5023224;28;20029;-69
2022/11/17 08:44:45;;;;;;;3.80;1.70;;;;;;;9.41;100.00;98222.13;5034900;28;20052;-69
2022/11/17 08:47:11;;;;;;;8.38;1.33;;;;;;;9.36;100.00;98216.97;5029380;28;20059;-70
2022/11/17 08:49:36;;;;;;;7.38;1.25;;;;;;;9.35;100.00;98228.38;5039519;28;20033;-69
2022/11/17 08:52:01;;;;;;;6.63;1.77;;;;;;;9.39;100.00;98231.81;5052092;28;20045;-69
2022/11/17 08:54:27;;;;;;;5.93;1.63;;;;;;;9.38;100.00;98233.53;5035086;28;20529;-71
2022/11/17 08:56:56;;;;;;;7.95;1.10;;;;;;;9.39;100.00;98240.53;5034027;28;20489;-70
2022/11/17 08:59:23;;;;;;;5.35;1.38;;;;;;;9.40;100.00;98246.63;5018210;28;20050;-69
2022/11/17 09:01:48;;;;;;;5.38;1.33;;;;;;;9.38;100.00;98238.78;5021511;28;20064;-69
2022/11/17 09:04:14;;;;;;;8.10;1.17;;;;;;;9.36;100.00;98244.97;5030920;28;20013;-69
2022/11/17 09:06:39;;;;;;;6.85;1.33;;;;;;;9.40;100.00;98247.50;5024528;28;20026;-69
2022/11/17 09:09:04;;;;;;;6.78;1.35;;;;;;;9.38;100.00;98254.53;5042483;28;20115;-69
2022/11/17 09:11:30;;;;;;;4.97;1.10;;;;;;;9.36;100.00;98251.09;5053854;28;20024;-69
2022/11/17 09:13:55;;;;;;;6.35;1.10;;;;;;;9.39;100.00;98256.28;5016829;28;20044;-69
2022/11/17 09:16:22;;;;;;;10.02;1.38;;;;;;;9.39;100.00;98281.66;5028212;28;20764;-70
2022/11/17 09:18:52;;;;;;;6.13;1.30;;;;;;;9.43;100.00;98263.19;5034166;28;20021;-68
2022/11/17 09:21:17;;;;;;;7.68;1.38;;;;;;;9.42;100.00;98260.59;5034381;28;20474;-70
2022/11/17 09:23:42;;;;;;;4.40;0.98;;;;;;;9.38;100.00;98258.94;5030028;28;20037;-69
2022/11/17 09:26:11;;;;;;;8.93;1.20;;;;;;;9.28;100.00;98266.13;5023871;28;20036;-72
2022/11/17 09:28:37;;;;;;;4.82;1.00;;;;;;;9.27;100.00;98278.38;5035099;28;20025;-70
2022/11/17 09:31:16;;;;;;;9.13;1.38;;;;;;;9.26;100.00;98281.91;5028844;28;20033;-70
2022/11/17 09:33:42;;;;;;;5.40;2.30;;;;;;;9.20;100.00;98268.91;5039808;28;20022;-70
2022/11/17 09:36:09;;;;;;;3.78;1.15;;;;;;;9.20;100.00;98289.03;5039702;28;20029;-69
2022/11/17 09:38:35;;;;;;;6.32;1.50;;;;;;;9.25;100.00;98284.53;5040715;28;20060;-69
2022/11/17 09:41:10;;;;;;;4.50;1.05;;;;;;;9.21;100.00;98294.25;5039044;28;21436;-70
2022/11/17 09:43:41;;;;;;;5.60;1.45;;;;;;;9.21;100.00;98288.13;5041608;28;20025;-69
2022/11/17 09:46:14;;;;;;;2.75;1.40;;;;;;;9.21;100.00;98301.25;5036171;28;20017;-69
2022/11/17 09:48:45;;;;;;;7.38;1.65;;;;;;;9.23;100.00;98307.34;5039131;28;20071;-69
2022/11/17 09:51:15;;;;;;;5.57;1.48;;;;;;;9.19;100.00;98310.91;5035476;28;20064;-69
2022/11/17 09:53:58;;;;;;;11.15;1.60;;;;;;;9.19;100.00;98314.38;5020948;28;20250;-69
2022/11/17 09:56:26;;;;;;;8.50;1.20;;;;;;;9.19;100.00;98306.53;5028270;28;20424;-69
2022/11/17 09:59:00;;;;;;;4.30;1.33;;;;;;;9.21;100.00;98319.59;5021800;28;20821;-69
2022/11/17 10:01:27;;;;;;;7.97;1.75;;;;;;;9.21;100.00;98323.13;5038065;28;20092;-70
2022/11/17 10:03:55;;;;;;;4.97;1.42;;;;;;;9.26;100.00;98320.38;5026865;28;20104;-69
2022/11/17 10:06:20;;;;;;;6.07;1.20;;;;;;;9.25;100.00;98321.28;5042007;28;20087;-70
2022/11/17 10:09:15;;;;;;;6.80;1.30;;;;;;;9.22;100.00;98327.44;5035669;28;20641;-69
2022/11/17 10:11:42;;;;;;;2.63;1.08;;;;;;;9.25;100.00;98334.41;5044597;28;20029;-70
2022/11/17 10:14:08;;;;;;;7.32;1.65;;;;;;;9.29;100.00;98338.69;5025606;28;20021;-69
2022/11/17 10:16:36;;;;;;;4.85;1.23;;;;;;;9.34;100.00;98342.09;5034763;28;20419;-69
2022/11/17 10:19:15;;;;;;;5.00;1.40;;;;;;;9.36;100.00;98352.56;5034091;28;20113;-69
2022/11/17 10:21:41;;;;;;;6.80;1.52;;;;;;;9.35;100.00;98343.84;5043428;28;20055;-70
2022/11/17 10:24:07;;;;;;;11.77;1.60;;;;;;;9.36;100.00;98345.56;5018365;28;20025;-70
2022/11/17 10:26:48;;;;;;;8.50;1.80;;;;;;;9.39;100.00;98358.63;5019988;28;20048;-70
2022/11/17 10:29:20;;;;;;;8.43;1.40;;;;;;;9.41;100.00;98353.34;5031366;28;20033;-69
2022/11/17 10:31:45;;;;;;;5.55;1.40;;;;;;;9.40;100.00;98362.13;5018635;28;20351;-69
2022/11/17 10:34:27;;;;;;;4.10;1.30;;;;;;;9.39;100.00;98371.75;5037560;28;20082;-69
2022/11/17 10:36:53;;;;;;;9.70;2.60;;;;;;;9.43;100.00;98368.19;5045093;28;20017;-70
2022/11/17 10:39:33;;;;;;;2.83;1.45;;;;;;;9.44;100.00;98358.53;5030980;28;20033;-69
2022/11/17 10:42:02;;;;;;;5.90;1.40;;;;;;;9.45;100.00;98365.53;5047998;28;20033;-68
2022/11/17 10:44:31;;;;;;;7.38;1.75;;;;;;;9.39;100.00;98377.00;5031459;28;20029;-69
2022/11/17 10:47:06;;;;;;;5.55;1.90;;;;;;;9.40;100.00;98378.75;5032358;28;20026;-70
2022/11/17 10:49:34;;;;;;;7.20;2.00;;;;;;;9.37;100.00;98372.69;5024182;28;20030;-69
2022/11/17 10:52:22;;;;;;;6.50;2.17;;;;;;;9.30;100.00;98374.53;5039652;28;20021;-69
2022/11/17 10:54:48;;;;;;;10.27;2.47;;;;;;;9.27;100.00;98379.84;5021877;28;20091;-68
2022/11/17 10:57:18;;;;;;;6.32;2.03;;;;;;;9.26;100.00;98380.75;5028369;28;20050;-69
2022/11/17 10:59:51;;;;;;;10.80;1.70;;;;;;;9.22;100.00;98373.81;5032382;28;20083;-69
2022/11/17 11:02:38;;;;;;;12.27;2.30;;;;;;;9.22;100.00;98384.31;5033967;28;20052;-71
2022/11/17 11:05:12;;;;;;;5.40;1.67;;;;;;;9.22;100.00;98406.16;5030441;28;20049;-69
2022/11/17 11:07:38;;;;;;;10.05;1.77;;;;;;;9.22;100.00;98389.56;5016907;28;20117;-69
2022/11/17 11:10:30;;;;;;;10.93;1.40;;;;;;;9.22;100.00;98400.91;5026022;28;20028;-68
2022/11/17 11:13:06;;;;;;;4.88;1.25;;;;;;;9.26;100.00;98401.75;5028965;28;20030;-70
2022/11/17 11:15:34;;;;;;;7.07;1.42;;;;;;;9.27;100.00;98424.47;5019893;28;20021;-69
2022/11/17 11:18:01;;;;;;;7.75;1.35;;;;;;;9.26;100.00;98413.13;5037473;28;20021;-70
2022/11/17 11:20:58;;;;;;;5.35;1.27;;;;;;;9.29;100.00;98422.66;5016056;28;20037;-70
2022/11/17 11:23:35;;;;;;;4.68;1.17;;;;;;;9.36;100.00;98419.06;5016166;28;20029;-70
2022/11/17 11:26:39;;;;;;;6.80;1.38;;;;;;;9.37;100.00;98417.28;5035683;28;20028;-70
2022/11/17 11:29:19;;;;;;;7.03;1.00;;;;;;;9.38;100.00;98419.88;5004128;28;20474;-68
2022/11/17 11:32:03;;;;;;;5.45;1.02;;;;;;;9.48;100.00;98422.34;5017988;28;20025;-68
2022/11/17 11:35:02;;;;;;;4.80;1.20;;;;;;;9.45;100.00;98424.16;5013537;28;20034;-69
2022/11/17 11:38:03;;;;;;;3.20;1.45;;;;;;;9.50;100.00;98428.47;5013570;28;20037;-69
2022/11/17 11:40:34;;;;;;;5.20;1.30;;;;;;;9.52;100.00;98427.53;5017983;28;20041;-68
2022/11/17 11:43:13;;;;;;;6.10;1.48;;;;;;;9.60;100.00;98440.50;5015526;28;20052;-68
2022/11/17 11:45:49;;;;;;;6.57;1.27;;;;;;;9.60;100.00;98453.63;5016038;28;20037;-70
2022/11/17 11:48:16;;;;;;;5.20;1.50;;;;;;;9.63;100.00;98437.84;5029168;28;20059;-68
2022/11/17 11:50:50;;;;;;;3.50;1.27;;;;;;;9.66;100.00;98439.50;5038227;28;20036;-69
2022/11/17 11:53:21;;;;;;;8.63;1.50;;;;;;;9.68;100.00;98445.63;5030602;28;20034;-69
2022/11/17 11:55:51;;;;;;;6.28;1.42;;;;;;;9.63;100.00;98443.09;5035999;28;20029;-68
2022/11/17 11:58:21;;;;;;;3.50;1.60;;;;;;;9.67;100.00;98444.78;5022646;28;20046;-69
2022/11/17 12:00:50;;;;;;;5.65;1.50;;;;;;;9.67;100.00;98446.50;5034157;28;20465;-69
2022/11/17 12:03:22;;;;;;;4.53;1.63;;;;;;;9.68;100.00;98443.84;5016527;28;20108;-69
2022/11/17 12:06:38;;;;;;;4.43;1.50;;;;;;;9.68;100.00;98456.97;5015563;28;20030;-68
2022/11/17 12:09:04;;;;;;;7.15;2.00;;;;;;;9.66;100.00;98450.91;5031721;28;20041;-69
2022/11/17 12:14:18;;;;;;;6.07;1.95;;;;;;;9.59;100.00;98462.38;5021278;28;20064;-68
2022/11/17 12:16:45;;;;;;;5.88;2.00;;;;;;;9.54;100.00;98457.25;5023336;28;20029;-69